createdAt,value
2022-12-08T00:01:39.801Z,60.20
2022-12-08T00:04:07.209Z,62.97
2022-12-08T00:06:53.193Z,59.22
2022-12-08T00:09:23.688Z,69.50
2022-12-08T00:11:50.961Z,64.25
2022-12-08T00:14:18.153Z,54.08
2022-12-08T00:16:45.514Z,54.25
2022-12-08T00:19:12.754Z,53.03
2022-12-08T00:21:40.099Z,45.63
2022-12-08T00:24:07.305Z,55.30
2022-12-08T00:26:34.577Z,43.83
2022-12-08T00:29:02.178Z,48.03
2022-12-08T00:31:29.489Z,40.83
2022-12-08T00:33:56.763Z,45.25
2022-12-08T00:36:24.004Z,37.13
2022-12-08T00:38:51.146Z,43.25
2022-12-08T00:41:18.399Z,44.60
2022-12-08T00:43:45.768Z,36.50
2022-12-08T00:46:13.253Z,34.72
2022-12-08T00:48:40.477Z,34.20
2022-12-08T00:51:07.752Z,38.85
2022-12-08T00:53:34.899Z,50.08
2022-12-08T00:56:02.125Z,49.40
2022-12-08T00:58:29.287Z,41.88
2022-12-08T01:00:56.587Z,35.63
2022-12-08T01:03:23.931Z,37.05
2022-12-08T01:05:51.255Z,40.92
2022-12-08T01:08:18.867Z,36.75
2022-12-08T01:10:46.174Z,42.33
2022-12-08T01:13:13.433Z,40.15
2022-12-08T01:15:40.572Z,35.72
2022-12-08T01:18:07.853Z,47.30
2022-12-08T01:20:34.999Z,34.30
2022-12-08T01:23:02.224Z,30.98
2022-12-08T01:25:29.612Z,38.08
2022-12-08T01:27:56.921Z,28.42
2022-12-08T01:30:24.057Z,33.63
2022-12-08T01:32:52.008Z,38.35
2022-12-08T01:35:19.250Z,42.50
2022-12-08T01:37:46.435Z,34.80
2022-12-08T01:40:13.642Z,36.30
2022-12-08T01:42:40.947Z,54.80
2022-12-08T01:45:08.132Z,41.00
2022-12-08T01:47:35.721Z,41.80
2022-12-08T01:50:03.422Z,33.38
2022-12-08T01:52:30.876Z,41.22
2022-12-08T01:54:58.025Z,37.63
2022-12-08T01:57:25.283Z,40.03
2022-12-08T01:59:52.667Z,32.60
2022-12-08T02:02:19.922Z,36.92
2022-12-08T02:04:47.239Z,38.33
2022-12-08T02:07:14.455Z,34.75
2022-12-08T02:09:41.643Z,37.33
2022-12-08T02:12:08.854Z,45.42
2022-12-08T02:14:36.075Z,38.55
2022-12-08T02:17:03.285Z,38.22
2022-12-08T02:19:31.623Z,45.67
2022-12-08T02:21:59.262Z,40.08
2022-12-08T02:24:26.417Z,42.38
2022-12-08T02:26:53.642Z,38.45
2022-12-08T02:29:20.797Z,35.72
2022-12-08T02:31:47.986Z,37.42
2022-12-08T02:34:15.153Z,42.17
2022-12-08T02:36:42.355Z,47.10
2022-12-08T02:39:09.509Z,46.28
2022-12-08T02:41:36.782Z,39.17
2022-12-08T02:44:04.080Z,39.33
2022-12-08T02:46:31.306Z,38.63
2022-12-08T02:48:58.481Z,34.55
2022-12-08T02:51:25.689Z,39.75
2022-12-08T02:53:52.811Z,45.20
2022-12-08T02:56:20.001Z,40.95
2022-12-08T02:58:47.229Z,55.38
2022-12-08T03:01:14.468Z,34.95
2022-12-08T03:03:41.744Z,38.22
2022-12-08T03:06:09.375Z,40.67
2022-12-08T03:08:36.533Z,41.50
2022-12-08T03:11:03.731Z,37.70
2022-12-08T03:13:30.900Z,43.95
2022-12-08T03:15:58.208Z,40.72
2022-12-08T03:18:25.372Z,42.17
2022-12-08T03:20:52.557Z,43.60
2022-12-08T03:23:20.045Z,48.88
2022-12-08T03:25:47.259Z,37.60
2022-12-08T03:28:14.459Z,45.90
2022-12-08T03:30:41.661Z,40.75
2022-12-08T03:33:08.867Z,41.65
2022-12-08T03:35:36.049Z,36.35
2022-12-08T03:38:03.648Z,41.58
2022-12-08T03:40:30.839Z,35.97
2022-12-08T03:42:58.019Z,42.03
2022-12-08T03:45:25.303Z,39.38
2022-12-08T03:47:52.515Z,33.55
2022-12-08T03:50:19.737Z,37.47
2022-12-08T03:52:46.888Z,40.63
2022-12-08T03:55:14.096Z,35.38
2022-12-08T03:57:41.371Z,39.97
2022-12-08T04:00:08.621Z,36.00
2022-12-08T04:02:35.797Z,35.22
2022-12-08T04:05:03.034Z,41.75
2022-12-08T04:07:30.239Z,40.83
2022-12-08T04:09:57.382Z,39.53
2022-12-08T04:12:24.587Z,37.35
2022-12-08T04:14:51.794Z,37.35
2022-12-08T04:17:19.054Z,40.80
2022-12-08T04:19:46.189Z,34.22
2022-12-08T04:22:13.407Z,46.55
2022-12-08T04:24:40.550Z,44.17
2022-12-08T04:27:07.758Z,37.45
2022-12-08T04:29:35.043Z,40.58
2022-12-08T04:32:02.262Z,41.33
2022-12-08T04:34:29.440Z,39.13
2022-12-08T04:36:56.634Z,48.63
2022-12-08T04:39:23.778Z,38.28
2022-12-08T04:41:51.026Z,35.20
2022-12-08T04:44:18.239Z,43.60
2022-12-08T04:46:45.516Z,41.65
2022-12-08T04:49:12.669Z,37.00
2022-12-08T04:51:39.879Z,33.55
2022-12-08T04:54:07.038Z,45.75
2022-12-08T04:56:34.231Z,43.03
2022-12-08T04:59:01.464Z,43.95
2022-12-08T05:01:28.665Z,38.83
2022-12-08T05:03:55.945Z,46.33
2022-12-08T05:06:23.095Z,45.22
2022-12-08T05:08:50.303Z,45.90
2022-12-08T05:11:17.435Z,40.10
2022-12-08T05:13:44.677Z,35.20
2022-12-08T05:16:11.880Z,41.78
2022-12-08T05:18:39.081Z,45.75
2022-12-08T05:21:06.300Z,36.38
2022-12-08T05:23:33.503Z,36.83
2022-12-08T05:26:00.673Z,46.38
2022-12-08T05:28:44.041Z,36.03
2022-12-08T05:31:11.601Z,38.88
2022-12-08T05:33:38.833Z,38.92
2022-12-08T05:36:06.157Z,43.58
2022-12-08T05:38:33.279Z,39.22
2022-12-08T05:41:00.495Z,45.53
2022-12-08T05:43:27.711Z,45.10
2022-12-08T05:45:55.039Z,38.15
2022-12-08T05:48:22.245Z,37.67
2022-12-08T05:50:49.611Z,39.30
2022-12-08T05:53:16.754Z,49.53
2022-12-08T05:55:44.033Z,45.00
2022-12-08T05:58:11.163Z,48.75
2022-12-08T06:00:38.368Z,47.25
2022-12-08T06:03:05.641Z,45.35
2022-12-08T06:05:32.937Z,38.10
2022-12-08T06:08:00.172Z,47.72
2022-12-08T06:10:27.503Z,39.47
2022-12-08T06:12:54.674Z,43.22
2022-12-08T06:15:21.844Z,40.38
2022-12-08T06:17:49.012Z,47.17
2022-12-08T06:20:16.337Z,57.75
2022-12-08T06:22:43.506Z,44.33
2022-12-08T06:25:10.972Z,50.25
2022-12-08T06:27:38.141Z,47.78
2022-12-08T06:30:05.501Z,47.50
2022-12-08T06:32:32.838Z,39.40
2022-12-08T06:35:00.128Z,48.05
2022-12-08T06:37:27.307Z,45.65
2022-12-08T06:39:54.569Z,48.47
2022-12-08T06:42:40.581Z,54.35
2022-12-08T06:45:07.786Z,48.60
2022-12-08T06:47:35.341Z,46.70
2022-12-08T06:50:03.036Z,49.80
2022-12-08T06:52:30.499Z,46.58
2022-12-08T06:54:57.759Z,46.00
2022-12-08T06:57:25.863Z,46.33
2022-12-08T06:59:53.062Z,49.40
2022-12-08T07:02:20.342Z,45.30
2022-12-08T07:04:47.683Z,43.33
2022-12-08T07:07:14.879Z,48.15
2022-12-08T07:09:42.056Z,51.47
2022-12-08T07:12:09.187Z,45.38
2022-12-08T07:14:36.377Z,55.25
2022-12-08T07:17:03.591Z,47.20
2022-12-08T07:19:30.872Z,48.40
2022-12-08T07:21:58.056Z,42.97
2022-12-08T07:24:27.793Z,46.10
2022-12-08T07:26:55.006Z,47.97
2022-12-08T07:29:26.166Z,50.47
2022-12-08T07:31:53.807Z,46.47
2022-12-08T07:34:21.009Z,43.30
2022-12-08T07:36:48.206Z,49.67
2022-12-08T07:39:15.331Z,42.40
2022-12-08T07:41:42.549Z,52.45
2022-12-08T07:44:09.875Z,53.42
2022-12-08T07:46:37.105Z,42.85
2022-12-08T07:49:04.491Z,43.45
2022-12-08T07:51:31.737Z,48.90
2022-12-08T07:53:59.049Z,46.05
2022-12-08T07:56:26.232Z,49.10
2022-12-08T07:58:53.465Z,52.15
2022-12-08T08:01:20.716Z,41.45
2022-12-08T08:03:48.082Z,42.60
2022-12-08T08:06:15.381Z,54.70
2022-12-08T08:08:42.642Z,49.15
2022-12-08T08:11:17.419Z,51.95
2022-12-08T08:13:48.022Z,55.95
2022-12-08T08:16:15.419Z,50.80
2022-12-08T08:18:43.808Z,55.22
2022-12-08T08:23:59.052Z,60.97
2022-12-08T08:26:26.210Z,61.60
2022-12-08T08:28:56.110Z,49.13
2022-12-08T08:31:23.306Z,56.25
2022-12-08T08:33:51.148Z,65.03
2022-12-08T08:36:18.444Z,52.63
2022-12-08T08:38:45.687Z,49.22
2022-12-08T08:41:12.843Z,61.55
2022-12-08T08:43:40.053Z,49.10
2022-12-08T08:46:08.884Z,50.95
2022-12-08T08:48:36.337Z,48.75
2022-12-08T08:51:03.552Z,53.40
2022-12-08T08:53:30.823Z,56.83
2022-12-08T08:55:58.069Z,52.90
2022-12-08T08:58:25.324Z,55.05
2022-12-08T09:00:52.553Z,48.13
2022-12-08T09:03:19.852Z,61.20
2022-12-08T09:05:47.108Z,51.20
2022-12-08T09:08:14.434Z,49.80
2022-12-08T09:10:41.656Z,72.50
2022-12-08T09:13:11.109Z,51.42
2022-12-08T09:15:38.480Z,53.00
2022-12-08T09:18:06.846Z,43.60
2022-12-08T09:20:34.130Z,52.80
2022-12-08T09:23:01.408Z,57.03
2022-12-08T09:25:28.571Z,57.53
2022-12-08T09:27:55.825Z,59.80
2022-12-08T09:30:23.203Z,59.35
2022-12-08T09:32:50.504Z,53.10
2022-12-08T09:35:17.683Z,54.97
2022-12-08T09:37:44.962Z,55.33
2022-12-08T09:40:12.155Z,54.40
2022-12-08T09:42:39.342Z,57.75
2022-12-08T09:45:06.605Z,54.70
2022-12-08T09:47:36.039Z,63.70
2022-12-08T09:50:26.469Z,63.03
2022-12-08T09:52:53.840Z,58.45
2022-12-08T09:55:21.581Z,59.38
2022-12-08T09:57:53.075Z,54.42
2022-12-08T10:00:26.240Z,58.38
2022-12-08T10:02:53.470Z,54.38
2022-12-08T10:05:43.687Z,60.35
2022-12-08T10:08:13.368Z,55.58
2022-12-08T10:10:40.650Z,66.28
2022-12-08T10:13:07.887Z,57.90
2022-12-08T10:15:35.025Z,56.25
2022-12-08T10:18:05.146Z,50.42
2022-12-08T10:20:33.338Z,50.85
2022-12-08T10:23:00.588Z,44.67
2022-12-08T10:25:27.742Z,50.75
2022-12-08T10:27:57.137Z,50.25
2022-12-08T10:30:25.881Z,53.03
2022-12-08T10:33:15.391Z,60.50
2022-12-08T10:35:42.748Z,75.80
2022-12-08T10:38:10.086Z,62.05
2022-12-08T10:40:43.851Z,54.60
2022-12-08T10:43:12.788Z,64.85
2022-12-08T10:45:44.000Z,56.00
2022-12-08T10:48:11.270Z,58.70
2022-12-08T10:50:38.445Z,62.25
2022-12-08T10:53:05.699Z,53.97
2022-12-08T10:55:33.044Z,57.10
2022-12-08T10:58:00.315Z,54.17
2022-12-08T11:00:27.920Z,59.55
2022-12-08T11:02:55.647Z,60.72
2022-12-08T11:05:23.002Z,48.70
2022-12-08T11:07:50.411Z,59.00
2022-12-08T11:10:17.642Z,63.75
2022-12-08T11:12:45.170Z,46.17
2022-12-08T11:15:12.441Z,55.05
2022-12-08T11:17:39.849Z,47.67
2022-12-08T11:20:07.353Z,53.00
2022-12-08T11:22:34.908Z,60.25
2022-12-08T11:25:02.599Z,53.58
2022-12-08T11:27:29.910Z,55.03
2022-12-08T11:29:57.099Z,58.03
2022-12-08T11:32:24.528Z,53.08
2022-12-08T11:34:51.921Z,53.95
2022-12-08T11:37:19.318Z,44.90
2022-12-08T11:39:46.485Z,46.15
2022-12-08T11:42:13.983Z,50.78
2022-12-08T11:44:41.187Z,50.83
2022-12-08T11:47:08.519Z,51.58
2022-12-08T11:49:35.789Z,51.00
2022-12-08T11:52:03.194Z,69.78
2022-12-08T11:54:30.321Z,61.00
2022-12-08T11:56:57.549Z,134.25
2022-12-08T11:59:24.745Z,141.75
2022-12-08T12:01:52.065Z,75.30
2022-12-08T12:04:19.254Z,59.85
2022-12-08T12:06:54.605Z,56.55
2022-12-08T12:09:22.670Z,57.95
2022-12-08T12:12:08.719Z,56.42
2022-12-08T12:14:36.092Z,48.67
2022-12-08T12:17:03.490Z,49.67
2022-12-08T12:19:30.776Z,55.53
2022-12-08T12:21:57.990Z,45.83
2022-12-08T12:24:27.539Z,61.60
2022-12-08T12:26:56.858Z,60.85
2022-12-08T12:29:24.140Z,65.82
2022-12-08T12:31:51.433Z,64.35
2022-12-08T12:34:18.895Z,61.97
2022-12-08T12:36:46.090Z,62.50
2022-12-08T12:39:13.333Z,67.00
2022-12-08T12:41:40.562Z,69.57
2022-12-08T12:44:07.707Z,77.85
2022-12-08T12:46:35.135Z,79.75
2022-12-08T12:49:02.429Z,93.88
2022-12-08T12:51:29.665Z,102.28
2022-12-08T12:53:56.880Z,126.45
2022-12-08T12:56:24.090Z,119.82
2022-12-08T12:58:51.435Z,86.07
2022-12-08T13:01:18.665Z,86.45
2022-12-08T13:03:45.917Z,88.50
2022-12-08T13:06:14.849Z,83.50
2022-12-08T13:08:42.595Z,67.55
2022-12-08T13:11:09.953Z,86.68
2022-12-08T13:13:37.295Z,76.93
2022-12-08T13:16:15.383Z,57.72
2022-12-08T13:18:44.637Z,66.93
2022-12-08T13:21:11.861Z,74.00
2022-12-08T13:23:39.067Z,57.92
2022-12-08T13:26:06.309Z,72.15
2022-12-08T13:28:33.599Z,64.18
2022-12-08T13:31:00.857Z,49.92
2022-12-08T13:33:28.217Z,52.42
2022-12-08T13:35:55.381Z,54.30
2022-12-08T13:38:22.611Z,70.50
2022-12-08T13:40:49.959Z,60.47
2022-12-08T13:43:17.154Z,55.85
2022-12-08T13:46:57.498Z,55.05
2022-12-08T13:49:36.508Z,55.60
2022-12-08T13:53:15.840Z,48.58
2022-12-08T13:57:10.697Z,51.83
2022-12-08T13:59:38.827Z,45.47
2022-12-08T14:02:06.034Z,49.85
2022-12-08T14:04:54.577Z,43.42
2022-12-08T14:07:21.638Z,47.97
2022-12-08T14:09:48.894Z,47.05
2022-12-08T14:12:16.260Z,42.90
2022-12-08T14:17:32.741Z,57.63
2022-12-08T14:20:00.120Z,50.47
2022-12-08T14:22:27.401Z,45.38
2022-12-08T14:24:54.596Z,54.95
2022-12-08T14:27:21.945Z,47.38
2022-12-08T14:29:49.218Z,48.10
2022-12-08T14:32:16.801Z,54.15
2022-12-08T14:34:44.025Z,46.45
2022-12-08T14:37:11.398Z,52.40
2022-12-08T14:39:38.713Z,48.55
2022-12-08T14:42:06.015Z,38.75
2022-12-08T14:44:33.291Z,47.88
2022-12-08T14:47:05.353Z,46.53
2022-12-08T14:49:33.277Z,44.50
2022-12-08T14:52:00.433Z,49.30
2022-12-08T14:54:27.759Z,47.30
2022-12-08T14:56:55.153Z,38.75
2022-12-08T14:59:23.210Z,36.92
2022-12-08T15:01:50.405Z,39.08
2022-12-08T15:04:17.801Z,41.08
2022-12-08T15:06:45.116Z,39.70
2022-12-08T15:09:12.345Z,39.10
2022-12-08T15:11:39.529Z,43.70
2022-12-08T15:14:06.769Z,42.75
2022-12-08T15:16:34.328Z,54.53
2022-12-08T15:19:02.307Z,38.08
2022-12-08T15:21:29.590Z,45.58
2022-12-08T15:23:56.821Z,37.08
2022-12-08T15:26:24.285Z,35.67
2022-12-08T15:28:51.873Z,39.00
2022-12-08T15:31:19.272Z,34.50
2022-12-08T15:33:46.698Z,44.22
2022-12-08T15:36:14.000Z,40.83
2022-12-08T15:38:41.387Z,40.00
2022-12-08T15:41:14.419Z,39.67
2022-12-08T15:43:42.446Z,39.15
2022-12-08T15:46:09.753Z,40.35
2022-12-08T15:48:37.017Z,34.35
2022-12-08T15:51:04.209Z,34.03
2022-12-08T15:53:31.771Z,38.42
2022-12-08T15:56:28.924Z,35.22
2022-12-08T15:58:55.032Z,30.25
2022-12-08T16:01:23.243Z,40.83
2022-12-08T16:09:25.472Z,32.75
2022-12-08T16:12:11.750Z,36.03
2022-12-08T16:17:27.106Z,27.98
2022-12-08T16:19:54.323Z,33.05
2022-12-08T16:25:18.278Z,39.70
2022-12-08T16:30:33.658Z,35.05
2022-12-08T16:33:00.876Z,34.28
2022-12-08T16:35:28.273Z,35.33
2022-12-08T16:37:55.490Z,33.85
2022-12-08T16:40:22.722Z,35.83
2022-12-08T16:42:50.461Z,31.33
2022-12-08T16:45:17.806Z,40.00
2022-12-08T16:47:46.018Z,37.63
2022-12-08T16:50:13.295Z,36.92
2022-12-08T16:52:40.803Z,39.65
2022-12-08T16:55:08.204Z,37.72
2022-12-08T16:57:35.430Z,37.08
2022-12-08T17:00:02.912Z,33.88
2022-12-08T17:02:30.212Z,40.17
2022-12-08T17:04:57.478Z,42.95
2022-12-08T17:07:24.783Z,44.45
2022-12-08T17:09:52.070Z,41.92
2022-12-08T17:12:19.331Z,50.42
2022-12-08T17:14:46.592Z,40.95
2022-12-08T17:17:13.736Z,47.40
2022-12-08T17:19:40.931Z,40.15
2022-12-08T17:22:08.111Z,43.97
2022-12-08T17:24:35.395Z,53.58
2022-12-08T17:27:04.251Z,50.00
2022-12-08T17:29:31.587Z,43.03
2022-12-08T17:31:58.914Z,42.03
2022-12-08T17:34:26.151Z,31.83
2022-12-08T17:36:53.414Z,36.28
2022-12-08T17:39:20.621Z,47.70
2022-12-08T17:41:47.959Z,35.70
2022-12-08T17:44:15.308Z,33.53
2022-12-08T17:46:46.388Z,33.17
2022-12-08T17:49:18.028Z,47.58
2022-12-08T17:51:45.192Z,38.55
2022-12-08T17:54:12.573Z,44.30
2022-12-08T17:56:39.795Z,37.42
2022-12-08T17:59:07.518Z,43.70
2022-12-08T18:01:34.816Z,46.42
2022-12-08T18:04:03.071Z,48.65
2022-12-08T18:06:31.373Z,51.72
2022-12-08T18:08:59.803Z,65.97
2022-12-08T18:11:26.992Z,55.03
2022-12-08T18:13:54.278Z,48.85
2022-12-08T18:16:21.533Z,50.28
2022-12-08T18:18:48.920Z,50.42
2022-12-08T18:21:22.815Z,51.42
2022-12-08T18:26:18.082Z,60.40
2022-12-08T18:28:45.291Z,61.95
2022-12-08T18:31:12.691Z,64.88
2022-12-08T18:33:40.077Z,58.67
2022-12-08T18:36:07.399Z,48.78
2022-12-08T18:38:34.780Z,54.70
2022-12-08T18:41:02.056Z,43.30
2022-12-08T18:43:29.316Z,38.67
2022-12-08T18:45:56.612Z,43.50
2022-12-08T18:48:23.849Z,49.22
2022-12-08T18:50:51.076Z,50.53
2022-12-08T18:53:18.311Z,48.28
2022-12-08T18:55:46.760Z,38.30
2022-12-08T18:58:14.557Z,43.97
2022-12-08T19:00:41.863Z,46.13
2022-12-08T19:03:09.208Z,46.30
2022-12-08T19:05:36.379Z,44.50
2022-12-08T19:08:03.718Z,46.28
2022-12-08T19:10:32.218Z,43.47
2022-12-08T19:12:59.463Z,49.08
2022-12-08T19:15:26.775Z,36.35
2022-12-08T19:17:54.174Z,48.58
2022-12-08T19:20:21.418Z,45.22
2022-12-08T19:22:48.744Z,40.10
2022-12-08T19:25:15.927Z,43.17
2022-12-08T19:27:44.147Z,47.33
2022-12-08T19:30:11.306Z,52.45
2022-12-08T19:32:38.605Z,45.85
2022-12-08T19:35:07.549Z,41.58
2022-12-08T19:37:35.084Z,46.05
2022-12-08T19:40:21.178Z,39.80
2022-12-08T19:43:07.405Z,41.17
2022-12-08T19:45:35.179Z,45.17
2022-12-08T19:48:02.801Z,38.17
2022-12-08T19:50:36.348Z,44.55
2022-12-08T19:53:03.755Z,38.50
2022-12-08T19:55:30.949Z,37.22
2022-12-08T19:57:58.481Z,50.15
2022-12-08T20:00:25.722Z,45.95
2022-12-08T20:02:53.035Z,39.30
2022-12-08T20:05:20.387Z,44.90
2022-12-08T20:07:47.740Z,45.55
2022-12-08T20:10:16.460Z,42.25
2022-12-08T20:12:43.714Z,47.65
2022-12-08T20:15:11.184Z,42.28
2022-12-08T20:17:38.454Z,46.65
2022-12-08T20:20:09.969Z,43.10
2022-12-08T20:22:37.431Z,44.00
2022-12-08T20:25:04.678Z,43.85
2022-12-08T20:27:32.080Z,46.53
2022-12-08T20:29:59.273Z,39.00
2022-12-08T20:32:26.484Z,41.83
2022-12-08T20:34:53.833Z,47.00
2022-12-08T20:37:21.133Z,43.92
2022-12-08T20:39:48.833Z,44.80
2022-12-08T20:42:16.291Z,37.55
2022-12-08T20:44:44.591Z,45.58
2022-12-08T20:47:12.465Z,47.92
2022-12-08T20:49:42.278Z,45.13
2022-12-08T20:52:09.727Z,41.65
2022-12-08T20:54:37.081Z,41.78
2022-12-08T20:57:04.393Z,51.38
2022-12-08T20:59:31.575Z,42.70
2022-12-08T21:04:27.800Z,40.50
